createdAt,value
2022-08-17T00:00:49.523Z,100330.88
2022-08-17T00:01:51.783Z,100332.08
2022-08-17T00:03:54.432Z,100332.97
2022-08-17T00:04:55.544Z,100332.25
2022-08-17T00:06:01.513Z,100336.73
2022-08-17T00:06:59.059Z,100333.86
2022-08-17T00:07:59.270Z,100333.59
2022-08-17T00:09:01.844Z,100333.05
2022-08-17T00:09:59.996Z,100330.62
2022-08-17T00:11:01.242Z,100334.07
2022-08-17T00:12:42.216Z,100331.25
2022-08-17T00:15:12.949Z,100333.41
2022-08-17T00:16:16.121Z,100332.22
2022-08-17T00:17:13.458Z,100330.99
2022-08-17T00:18:57.483Z,100333.34
2022-08-17T00:19:19.211Z,100335.59
2022-08-17T00:20:18.526Z,100334.03
2022-08-17T00:21:25.338Z,100330.71
2022-08-17T00:22:34.726Z,100334.38
2022-08-17T00:23:24.148Z,100333.88
2022-08-17T00:24:23.954Z,100332.66
2022-08-17T00:25:24.162Z,100336.09
2022-08-17T00:26:44.273Z,100332.41
2022-08-17T00:27:27.660Z,100331.56
2022-08-17T00:28:28.077Z,100332.64
2022-08-17T00:29:30.641Z,100329.69
2022-08-17T00:30:31.167Z,100329.26
2022-08-17T00:31:33.827Z,100325.2
2022-08-17T00:33:36.610Z,100328.69
2022-08-17T00:34:36.408Z,100328.27
2022-08-17T00:35:37.540Z,100330
2022-08-17T00:36:37.033Z,100332.12
2022-08-17T00:37:37.559Z,100327.81
2022-08-17T00:38:38.045Z,100328.48
2022-08-17T00:39:38.346Z,100328.48
2022-08-17T00:41:42.370Z,100331.25
2022-08-17T00:42:41.371Z,100329.94
2022-08-17T00:44:42.731Z,100331.02
2022-08-17T00:45:43.445Z,100335.89
2022-08-17T00:46:44.783Z,100334
2022-08-17T00:47:44.066Z,100334.06
2022-08-17T00:48:45.202Z,100335.06
2022-08-17T00:49:44.700Z,100336.69
2022-08-17T00:54:55.286Z,100339.11
2022-08-17T00:55:54.983Z,100341.86
2022-08-17T00:58:00.316Z,100339.88
2022-08-17T00:58:59.002Z,100335.66
2022-08-17T01:01:01.489Z,100336.73
2022-08-17T01:02:02.493Z,100336.56
2022-08-17T01:03:06.431Z,100338.59
2022-08-17T01:04:04.868Z,100340
2022-08-17T01:05:04.765Z,100337.3
2022-08-17T01:06:06.678Z,100336.56
2022-08-17T01:07:06.423Z,100335.67
2022-08-17T01:08:09.493Z,100336.56
2022-08-17T01:09:06.739Z,100337.98
2022-08-17T01:11:00.039Z,100334.61
2022-08-17T01:11:08.697Z,100335.94
2022-08-17T01:12:10.337Z,100337.56
2022-08-17T01:13:09.221Z,100335.92
2022-08-17T01:14:09.639Z,100337.34
2022-08-17T01:15:10.461Z,100337.56
2022-08-17T01:17:13.240Z,100336.08
2022-08-17T01:18:13.566Z,100337.21
2022-08-17T01:20:16.127Z,100333.1
2022-08-17T01:22:25.659Z,100338.73
2022-08-17T01:23:25.377Z,100335.98
2022-08-17T01:24:24.043Z,100336.31
2022-08-17T01:25:25.068Z,100339.17
2022-08-17T01:26:24.256Z,100336.59
2022-08-17T01:27:25.697Z,100340.64
2022-08-17T01:28:52.581Z,100339.73
2022-08-17T01:29:31.547Z,100334.72
2022-08-17T01:30:57.160Z,100337.02
2022-08-17T01:32:36.181Z,100335.06
2022-08-17T01:33:37.319Z,100332.7
2022-08-17T01:34:42.663Z,100334.98
2022-08-17T01:35:41.426Z,100331.95
2022-08-17T01:36:43.886Z,100333.87
2022-08-17T01:37:42.875Z,100335.29
2022-08-17T01:38:42.366Z,100339.97
2022-08-17T01:41:52.111Z,100335.14
2022-08-17T01:44:57.446Z,100335.62
2022-08-17T01:46:02.686Z,100332.64
2022-08-17T01:46:56.240Z,100329.16
2022-08-17T01:47:57.165Z,100325.73
2022-08-17T01:48:58.406Z,100324.72
2022-08-17T01:49:57.381Z,100325.55
2022-08-17T01:50:58.116Z,100323.7
2022-08-17T01:52:04.056Z,100325.05
2022-08-17T01:54:10.326Z,100320.55
2022-08-17T01:55:09.302Z,100322.96
2022-08-17T01:56:11.251Z,100318.08
2022-08-17T01:57:09.310Z,100319.58
2022-08-17T01:58:08.998Z,100321.55
2022-08-17T01:59:09.426Z,100321.78
2022-08-17T02:00:10.515Z,100321.42
2022-08-17T02:01:11.635Z,100318.61
2022-08-17T02:02:10.546Z,100319.75
2022-08-17T02:03:11.013Z,100319.05
2022-08-17T02:04:12.320Z,100316.98
2022-08-17T02:05:13.047Z,100314.12
2022-08-17T02:06:27.997Z,100317.22
2022-08-17T02:07:15.827Z,100316.99
2022-08-17T02:08:20.099Z,100315.91
2022-08-17T02:09:17.786Z,100316.36
2022-08-17T02:10:20.284Z,100319.71
2022-08-17T02:11:20.766Z,100319.44
2022-08-17T02:12:38.359Z,100316.46
2022-08-17T02:13:21.806Z,100318.47
2022-08-17T02:14:21.910Z,100318.85
2022-08-17T02:15:22.536Z,100317.67
2022-08-17T02:16:22.338Z,100316.48
2022-08-17T02:17:22.954Z,100315.12
2022-08-17T02:18:23.773Z,100313.2
2022-08-17T02:19:23.689Z,100308.43
2022-08-17T02:20:41.660Z,100306.69
2022-08-17T02:21:25.335Z,100308.77
2022-08-17T02:22:26.376Z,100306.36
2022-08-17T02:25:32.836Z,100303.81
2022-08-17T02:26:30.806Z,100303.53
2022-08-17T02:27:31.427Z,100306.02
2022-08-17T02:28:31.652Z,100305.17
2022-08-17T02:29:32.146Z,100306.91
2022-08-17T02:30:59.656Z,100306.3
2022-08-17T02:31:34.828Z,100307.09
2022-08-17T02:32:35.339Z,100308.99
2022-08-17T02:33:42.955Z,100304.3
2022-08-17T02:34:36.035Z,100307.06
2022-08-17T02:35:38.007Z,100303.78
2022-08-17T02:36:36.910Z,100302.45
2022-08-17T02:37:37.422Z,100304.75
2022-08-17T02:38:39.176Z,100310.7
2022-08-17T02:39:38.464Z,100306.66
2022-08-17T02:40:38.748Z,100309.08
2022-08-17T02:41:39.829Z,100309.92
2022-08-17T02:42:42.138Z,100310.09
2022-08-17T02:43:40.035Z,100310.2
2022-08-17T02:44:41.056Z,100309.35
2022-08-17T02:45:41.162Z,100309.25
2022-08-17T02:46:41.479Z,100312.32
2022-08-17T02:47:42.524Z,100313.22
2022-08-17T02:48:42.432Z,100310.99
2022-08-17T02:49:54.126Z,100311.54
2022-08-17T02:50:48.686Z,100311.92
2022-08-17T02:51:50.121Z,100309.48
2022-08-17T02:53:01.596Z,100309.26
2022-08-17T02:53:50.445Z,100310.77
2022-08-17T02:54:50.545Z,100310.5
2022-08-17T02:55:51.065Z,100312.2
2022-08-17T02:56:51.786Z,100309.8
2022-08-17T02:57:52.515Z,100309.58
2022-08-17T02:58:52.406Z,100309.41
2022-08-17T02:59:52.924Z,100309.02
2022-08-17T03:00:53.338Z,100311.53
2022-08-17T03:01:53.884Z,100312.15
2022-08-17T03:02:54.898Z,100315.12
2022-08-17T03:03:54.798Z,100311.98
2022-08-17T03:04:55.112Z,100313.27
2022-08-17T03:05:56.143Z,100315.38
2022-08-17T03:06:56.452Z,100311.61
2022-08-17T03:07:57.187Z,100315.2
2022-08-17T03:08:57.300Z,100312.17
2022-08-17T03:09:57.924Z,100312.72
2022-08-17T03:10:58.296Z,100316.53
2022-08-17T03:12:07.464Z,100313.12
2022-08-17T03:13:00.285Z,100315.54
2022-08-17T03:14:00.401Z,100316.94
2022-08-17T03:15:05.927Z,100317.27
2022-08-17T03:16:03.780Z,100319.43
2022-08-17T03:17:04.305Z,100318.3
2022-08-17T03:18:04.625Z,100318.38
2022-08-17T03:19:04.827Z,100316.73
2022-08-17T03:20:07.396Z,100319.98
2022-08-17T03:21:06.485Z,100319.98
2022-08-17T03:22:36.035Z,100317.02
2022-08-17T03:23:11.125Z,100317.96
2022-08-17T03:24:11.062Z,100322.09
2022-08-17T03:25:14.717Z,100319.69
2022-08-17T03:26:12.170Z,100320.24
2022-08-17T03:27:12.976Z,100320.31
2022-08-17T03:28:13.497Z,100322.34
2022-08-17T03:29:13.799Z,100322.67
2022-08-17T03:30:15.841Z,100325.4
2022-08-17T03:31:14.709Z,100322.64
2022-08-17T03:32:16.485Z,100325.75
2022-08-17T03:33:15.980Z,100324.23
2022-08-17T03:34:17.233Z,100323.15
2022-08-17T03:35:19.171Z,100329.16
2022-08-17T03:36:17.034Z,100330.34
2022-08-17T03:37:17.645Z,100323.84
2022-08-17T03:38:18.504Z,100323.27
2022-08-17T03:39:18.581Z,100327.55
2022-08-17T03:40:37.005Z,100323.98
2022-08-17T03:41:21.884Z,100324.31
2022-08-17T03:42:32.478Z,100321.6
2022-08-17T03:43:25.975Z,100324.53
2022-08-17T03:44:25.777Z,100325.98
2022-08-17T03:45:26.515Z,100323.59
2022-08-17T03:46:34.167Z,100323.62
2022-08-17T03:47:32.896Z,100327.01
2022-08-17T03:48:33.287Z,100323.97
2022-08-17T03:49:33.794Z,100324.66
2022-08-17T03:50:34.337Z,100327.97
2022-08-17T03:51:34.321Z,100326.95
2022-08-17T03:52:34.650Z,100329.45
2022-08-17T03:54:38.338Z,100328.06
2022-08-17T03:55:38.858Z,100330.34
2022-08-17T03:56:39.696Z,100334.72
2022-08-17T03:57:39.498Z,100333.88
2022-08-17T03:58:39.396Z,100335.68
2022-08-17T03:59:40.908Z,100335.34
2022-08-17T04:00:40.731Z,100334.5
2022-08-17T04:01:40.848Z,100335.31
2022-08-17T04:02:42.910Z,100339.07
2022-08-17T04:03:41.468Z,100336.23
2022-08-17T04:04:41.885Z,100337.29
2022-08-17T04:05:42.619Z,100337.86
2022-08-17T04:06:42.843Z,100335.95
2022-08-17T04:07:43.545Z,100333.61
2022-08-17T04:08:43.341Z,100338.59
2022-08-17T04:09:43.765Z,100340.62
2022-08-17T04:10:45.142Z,100339.38
2022-08-17T04:11:44.811Z,100338.53
2022-08-17T04:13:46.863Z,100337.06
2022-08-17T04:14:53.270Z,100339.81
2022-08-17T04:15:52.014Z,100338.41
2022-08-17T04:16:52.518Z,100339.57
2022-08-17T04:17:52.829Z,100337.84
2022-08-17T04:18:53.342Z,100339.08
2022-08-17T04:19:55.233Z,100339.22
2022-08-17T04:20:54.076Z,100338.13
2022-08-17T04:21:54.183Z,100338.16
2022-08-17T04:23:58.916Z,100341.18
2022-08-17T04:24:59.221Z,100340.48
2022-08-17T04:25:59.646Z,100340.59
2022-08-17T04:27:00.269Z,100341.34
2022-08-17T04:28:01.639Z,100340.28
2022-08-17T04:29:00.897Z,100344.05
2022-08-17T04:30:01.316Z,100344
2022-08-17T04:31:01.416Z,100341.7
2022-08-17T04:32:02.957Z,100342.86
2022-08-17T04:33:08.635Z,100342.26
2022-08-17T04:34:06.055Z,100346.52
2022-08-17T04:35:07.092Z,100341.88
2022-08-17T04:36:08.717Z,100348.28
2022-08-17T04:37:07.181Z,100345.66
2022-08-17T04:38:09.753Z,100348.14
2022-08-17T04:39:08.237Z,100349.88
2022-08-17T04:40:09.702Z,100350.33
2022-08-17T04:41:09.563Z,100352.53
2022-08-17T04:42:09.167Z,100353.48
2022-08-17T04:44:12.041Z,100352.66
2022-08-17T04:45:11.857Z,100354.03
2022-08-17T04:46:17.796Z,100358.48
2022-08-17T04:47:15.039Z,100356.83
2022-08-17T04:48:15.651Z,100362.38
2022-08-17T04:49:15.962Z,100362.34
2022-08-17T04:50:16.703Z,100363.42
2022-08-17T04:51:22.436Z,100366.02
2022-08-17T04:52:37.462Z,100363.57
2022-08-17T04:53:21.928Z,100361.05
2022-08-17T04:54:22.560Z,100358
2022-08-17T04:55:22.864Z,100360.64
2022-08-17T04:56:26.055Z,100361.66
2022-08-17T04:57:23.593Z,100363.36
2022-08-17T04:58:23.915Z,100361.02
2022-08-17T04:59:24.324Z,100359.61
2022-08-17T05:00:24.957Z,100354.38
2022-08-17T05:01:28.173Z,100356.58
2022-08-17T05:02:25.587Z,100359.33
2022-08-17T05:03:26.400Z,100354.02
2022-08-17T05:04:33.966Z,100357.71
2022-08-17T05:05:30.206Z,100356
2022-08-17T05:06:30.121Z,100354.66
2022-08-17T05:07:31.587Z,100355.09
2022-08-17T05:08:29.507Z,100354.45
2022-08-17T05:09:29.943Z,100356.09
2022-08-17T05:10:34.848Z,100352.52
2022-08-17T05:11:35.161Z,100354.16
2022-08-17T05:12:34.758Z,100356.42
2022-08-17T05:13:35.187Z,100355.64
2022-08-17T05:14:38.348Z,100355.39
2022-08-17T05:15:38.559Z,100351.78
2022-08-17T05:16:37.441Z,100358.58
2022-08-17T05:17:37.762Z,100353.28
2022-08-17T05:18:38.275Z,100355.75
2022-08-17T05:19:38.796Z,100353.48
2022-08-17T05:20:40.338Z,100355.84
2022-08-17T05:21:39.417Z,100356.91
2022-08-17T05:23:47.730Z,100353.93
2022-08-17T05:24:53.944Z,100348.53
2022-08-17T05:25:50.519Z,100349.53
2022-08-17T05:26:48.366Z,100352.77
2022-08-17T05:27:48.885Z,100348.12
2022-08-17T05:28:49.301Z,100352.38
2022-08-17T05:29:49.719Z,100347.89
2022-08-17T05:30:50.433Z,100352.78
2022-08-17T05:31:50.448Z,100350.59
2022-08-17T05:32:56.289Z,100349.77
2022-08-17T05:33:53.627Z,100351.25
2022-08-17T05:34:56.919Z,100351.7
2022-08-17T05:35:57.227Z,100352.55
2022-08-17T05:36:54.990Z,100352.92
2022-08-17T05:37:56.758Z,100352.63
2022-08-17T05:38:55.719Z,100350.19
2022-08-17T05:39:56.086Z,100354.34
2022-08-17T05:40:57.671Z,100351.45
2022-08-17T05:41:56.548Z,100351.99
2022-08-17T05:43:57.591Z,100352.81
2022-08-17T05:44:58.725Z,100352.34
2022-08-17T05:47:05.180Z,100351.8
2022-08-17T05:48:08.163Z,100356.76
2022-08-17T05:49:08.783Z,100356.73
2022-08-17T05:50:10.077Z,100358.02
2022-08-17T06:00:31.395Z,100353.97
2022-08-17T06:17:08.657Z,100364.19
2022-08-17T06:18:09.494Z,100361.5
2022-08-17T06:20:15.406Z,100359.54
2022-08-17T06:21:17.183Z,100358.45
2022-08-17T06:22:20.171Z,100355.52
2022-08-17T06:23:30.411Z,100354.33
2022-08-17T06:26:42.800Z,100349.81
2022-08-17T06:28:41.718Z,100350.91
2022-08-17T06:31:41.725Z,100355.95
2022-08-17T06:33:44.501Z,100356.98
2022-08-17T06:34:46.244Z,100354.34
2022-08-17T06:45:18.286Z,100352.69
2022-08-17T06:57:55.215Z,100367
2022-08-17T06:58:57.071Z,100360.99
2022-08-17T07:00:58.747Z,100362.39
2022-08-17T07:01:56.975Z,100362.58
2022-08-17T07:05:02.636Z,100362.09
2022-08-17T07:06:08.364Z,100363.85
2022-08-17T07:07:10.013Z,100365.45
2022-08-17T07:10:14.968Z,100365.81
2022-08-17T07:12:21.586Z,100364.03
2022-08-17T07:17:46.692Z,100368.78
2022-08-17T07:18:30.900Z,100372.73
2022-08-17T07:19:32.928Z,100370.69
2022-08-17T07:20:30.647Z,100372.12
2022-08-17T07:25:42.697Z,100373.33
2022-08-17T07:26:43.025Z,100368.29
2022-08-17T07:27:46.297Z,100370.14
2022-08-17T07:28:44.367Z,100370.84
2022-08-17T07:31:48.772Z,100368.55
2022-08-17T07:35:04.465Z,100373.91
2022-08-17T07:35:59.162Z,100373.75
2022-08-17T07:37:05.437Z,100369.84
2022-08-17T07:38:25.416Z,100374.7
2022-08-17T07:39:04.386Z,100369.84
2022-08-17T07:41:10.860Z,100369.41
2022-08-17T07:42:10.761Z,100375.11
2022-08-17T07:43:21.899Z,100367.45
2022-08-17T07:44:16.192Z,100371.47
2022-08-17T07:45:15.498Z,100369.64
2022-08-17T07:47:17.337Z,100372.04
2022-08-17T07:48:21.483Z,100376.87
2022-08-17T07:49:32.618Z,100375.02
2022-08-17T07:50:28.637Z,100372.2
2022-08-17T07:51:28.761Z,100375.58
2022-08-17T07:53:26.502Z,100375.22
2022-08-17T07:54:33.466Z,100371.59
2022-08-17T07:55:32.664Z,100375.47
2022-08-17T07:57:35.949Z,100366.59
2022-08-17T07:58:34.515Z,100369.25
2022-08-17T07:59:36.803Z,100368.19
2022-08-17T08:00:35.148Z,100369.44
2022-08-17T08:01:39.378Z,100365.87
2022-08-17T08:02:42.411Z,100369.88
2022-08-17T08:03:44.383Z,100369.51
2022-08-17T08:05:03.838Z,100371.59
2022-08-17T08:05:52.600Z,100371.47
2022-08-17T08:06:52.697Z,100370.73
2022-08-17T08:08:55.883Z,100369.02
2022-08-17T08:11:04.909Z,100369.95
2022-08-17T08:17:22.560Z,100365.16
2022-08-17T08:18:54.943Z,100367.62
2022-08-17T08:19:20.591Z,100368.3
2022-08-17T08:20:51.766Z,100370.59
2022-08-17T08:27:42.497Z,100365.86
2022-08-17T08:30:46.099Z,100365.02
2022-08-17T08:55:58.862Z,100357.77
2022-08-17T08:57:22.344Z,100354.8
2022-08-17T09:01:00.316Z,100360.23
2022-08-17T09:15:42.503Z,100356.38
2022-08-17T09:29:14.120Z,100350.66
2022-08-17T09:30:12.518Z,100348.8
2022-08-17T09:31:19.062Z,100346.88
2022-08-17T09:33:24.598Z,100349.34
2022-08-17T09:39:46.897Z,100342.68
2022-08-17T09:50:13.648Z,100334.98
2022-08-17T09:53:07.623Z,100335.72
2022-08-17T09:55:10.624Z,100334.5
2022-08-17T10:18:19.468Z,100332.86
2022-08-17T10:21:15.083Z,100334.99
2022-08-17T10:25:24.855Z,100325.05
2022-08-17T10:26:26.052Z,100327.26
2022-08-17T10:28:32.324Z,100319.27
2022-08-17T10:29:46.194Z,100320.6
2022-08-17T10:30:35.105Z,100325.22
2022-08-17T10:55:34.038Z,100328.03
2022-08-17T10:57:45.428Z,100327.27
2022-08-17T11:24:45.618Z,100331.72
2022-08-17T11:25:53.935Z,100332.38
2022-08-17T11:27:51.563Z,100329.31
2022-08-17T11:28:52.893Z,100327.05
2022-08-17T11:32:59.382Z,100330.77
2022-08-17T11:56:51.135Z,100324.73
2022-08-17T11:58:00.364Z,100321.83
2022-08-17T11:58:52.892Z,100329.42
2022-08-17T12:00:01.096Z,100329.83
2022-08-17T12:01:00.912Z,100328.16
2022-08-17T12:01:59.663Z,100324.62
2022-08-17T12:09:22.953Z,100322.06
2022-08-17T12:12:31.381Z,100317.78
2022-08-17T12:13:38.549Z,100313.66
2022-08-17T12:15:07.956Z,100314.02
2022-08-17T12:16:40.892Z,100312.06
2022-08-17T12:17:52.275Z,100310.02
2022-08-17T12:19:48.539Z,100308.56
2022-08-17T12:27:07.212Z,100308.53
2022-08-17T12:29:18.161Z,100306.22
2022-08-17T12:30:15.523Z,100307.41
2022-08-17T12:32:19.930Z,100301.53
2022-08-17T12:33:25.443Z,100303.42
2022-08-17T12:34:24.655Z,100304.03
2022-08-17T12:35:30.298Z,100301.14
2022-08-17T12:36:24.886Z,100301.43
2022-08-17T12:37:31.134Z,100301.45
2022-08-17T12:38:30.389Z,100300.7
2022-08-17T12:39:26.784Z,100297.72
2022-08-17T12:40:28.600Z,100298.36
2022-08-17T12:42:36.194Z,100292.98
2022-08-17T12:43:33.416Z,100295.02
2022-08-17T12:44:46.278Z,100294.84
2022-08-17T12:45:39.474Z,100291.27
2022-08-17T12:47:39.805Z,100290.25
2022-08-17T12:48:40.215Z,100291.41
2022-08-17T12:49:42.777Z,100294.34
2022-08-17T12:50:45.042Z,100293.18
2022-08-17T12:51:45.448Z,100292.67
2022-08-17T12:52:43.624Z,100292.95
2022-08-17T12:55:50.194Z,100294.89
2022-08-17T12:56:49.069Z,100290.27
2022-08-17T12:58:52.473Z,100284.8
2022-08-17T13:02:00.650Z,100288.8
2022-08-17T13:04:04.677Z,100292.19
2022-08-17T13:05:07.571Z,100288.53
2022-08-17T13:07:07.572Z,100281.66
2022-08-17T13:13:22.972Z,100276.89
2022-08-17T13:14:20.833Z,100274.86
2022-08-17T13:15:24.828Z,100277.05
2022-08-17T13:16:27.902Z,100275.98
2022-08-17T13:17:28.620Z,100274.17
2022-08-17T13:19:40.078Z,100272.85
2022-08-17T13:20:28.750Z,100281.21
2022-08-17T13:21:29.884Z,100283.21
2022-08-17T13:22:30.309Z,100282.84
2022-08-17T13:23:30.300Z,100276.99
2022-08-17T13:24:38.262Z,100276.55
2022-08-17T13:25:31.341Z,100273.82
2022-08-17T13:27:36.473Z,100268.92
2022-08-17T13:28:36.788Z,100267.08
2022-08-17T13:30:39.973Z,100268.8
2022-08-17T13:31:52.290Z,100270.02
2022-08-17T13:32:45.767Z,100271.14
2022-08-17T13:33:45.056Z,100271.36
2022-08-17T13:35:14.106Z,100273.42
2022-08-17T13:35:50.453Z,100270.84
2022-08-17T13:36:51.172Z,100272.14
2022-08-17T13:39:59.400Z,100275.05
2022-08-17T13:40:57.328Z,100272.17
2022-08-17T13:41:57.452Z,100273.16
2022-08-17T13:42:58.587Z,100275.19
2022-08-17T13:43:58.076Z,100273.89
2022-08-17T13:44:59.324Z,100270.67
2022-08-17T13:47:02.912Z,100271.69
2022-08-17T13:55:28.360Z,100263.69
2022-08-17T13:57:28.681Z,100267.57
2022-08-17T14:00:35.772Z,100262.59
2022-08-17T14:02:35.371Z,100265.19
2022-08-17T14:03:35.480Z,100265.81
2022-08-17T14:04:38.563Z,100266.82
2022-08-17T14:05:39.386Z,100263.19
2022-08-17T14:07:40.419Z,100265.54
2022-08-17T14:08:41.047Z,100267.97
2022-08-17T14:10:56.726Z,100270.92
2022-08-17T14:11:49.875Z,100269.62
2022-08-17T14:12:49.577Z,100270.92
2022-08-17T14:13:50.735Z,100270.48
2022-08-17T14:14:51.115Z,100266.84
2022-08-17T14:15:55.224Z,100269.52
2022-08-17T14:16:54.207Z,100272.81
2022-08-17T14:17:54.696Z,100271.31
2022-08-17T14:18:56.907Z,100265.97
2022-08-17T14:19:55.353Z,100264.47
2022-08-17T14:20:55.565Z,100265.48
2022-08-17T14:21:55.985Z,100266.63
2022-08-17T14:22:56.393Z,100266.34
2022-08-17T14:23:57.934Z,100266.91
2022-08-17T14:24:58.146Z,100264.14
2022-08-17T14:25:57.641Z,100263.8
2022-08-17T14:26:59.592Z,100263.95
2022-08-17T14:27:58.460Z,100263.12
2022-08-17T14:28:58.582Z,100266.14
2022-08-17T14:29:59.519Z,100260.73
2022-08-17T14:31:00.543Z,100262.87
2022-08-17T14:32:04.032Z,100262.58
2022-08-17T14:33:01.691Z,100263.16
2022-08-17T14:34:01.798Z,100257.86
2022-08-17T14:35:05.384Z,100261.19
2022-08-17T14:36:03.754Z,100258.71
2022-08-17T14:37:03.151Z,100260.11
2022-08-17T14:38:03.558Z,100260.8
2022-08-17T14:39:04.384Z,100261.8
2022-08-17T14:40:09.954Z,100262.62
2022-08-17T14:41:07.468Z,100260.27
2022-08-17T14:42:07.984Z,100264.97
2022-08-17T14:43:08.196Z,100262.62
2022-08-17T14:44:08.928Z,100261.62
2022-08-17T14:45:29.957Z,100259.2
2022-08-17T14:46:13.033Z,100259.98
2022-08-17T14:47:13.342Z,100256.22
2022-08-17T14:48:13.456Z,100256.89
2022-08-17T14:49:14.179Z,100258.22
2022-08-17T14:50:15.105Z,100257.54
2022-08-17T14:51:16.862Z,100255.23
2022-08-17T14:52:18.909Z,100253.88
2022-08-17T14:53:17.708Z,100255.53
2022-08-17T14:54:33.312Z,100255.7
2022-08-17T14:55:22.411Z,100247.62
2022-08-17T14:56:22.223Z,100248.67
2022-08-17T14:57:34.334Z,100248.06
2022-08-17T14:58:27.262Z,100248.81
2022-08-17T14:59:27.562Z,100247.41
2022-08-17T15:00:27.768Z,100241.72
2022-08-17T15:01:28.174Z,100237.59
2022-08-17T15:02:30.893Z,100239.5
2022-08-17T15:03:28.925Z,100242.95
2022-08-17T15:04:29.745Z,100238.56
2022-08-17T15:05:34.862Z,100237.38
2022-08-17T15:06:32.323Z,100238.23
2022-08-17T15:07:32.746Z,100241.31
2022-08-17T15:08:33.264Z,100241.48
2022-08-17T15:09:35.766Z,100239.81
2022-08-17T15:10:35.119Z,100236.81
2022-08-17T15:11:34.699Z,100240.08
2022-08-17T15:12:35.744Z,100239.3
2022-08-17T15:13:35.954Z,100237.73
2022-08-17T15:14:36.457Z,100240.56
2022-08-17T15:15:35.971Z,100239.25
2022-08-17T15:16:37.295Z,100234.35
2022-08-17T15:17:44.485Z,100237.38
2022-08-17T15:18:38.134Z,100233.86
2022-08-17T15:19:38.444Z,100237.55
2022-08-17T15:20:39.162Z,100236.93
2022-08-17T15:21:39.166Z,100239.52
2022-08-17T15:22:44.502Z,100237.5
2022-08-17T15:23:41.973Z,100238.98
2022-08-17T15:24:42.158Z,100236.97
2022-08-17T15:25:43.304Z,100239.47
2022-08-17T15:26:43.297Z,100238.25
2022-08-17T15:27:43.310Z,100238.41
2022-08-17T15:28:43.678Z,100233.54
2022-08-17T15:29:46.291Z,100233.97
2022-08-17T15:30:46.806Z,100239.88
2022-08-17T15:31:47.127Z,100236.72
2022-08-17T15:32:54.068Z,100238.17
2022-08-17T15:33:53.180Z,100242.49
2022-08-17T15:34:55.026Z,100237.47
2022-08-17T15:35:53.084Z,100238.47
2022-08-17T15:36:53.809Z,100238.23
2022-08-17T15:37:53.710Z,100235.7
2022-08-17T15:38:54.230Z,100235.59
2022-08-17T15:39:55.903Z,100235.61
2022-08-17T15:40:55.268Z,100238.63
2022-08-17T15:41:58.564Z,100232.61
2022-08-17T15:42:56.411Z,100235.88
2022-08-17T15:43:56.631Z,100235.75
2022-08-17T15:44:57.139Z,100230.64
2022-08-17T15:46:58.070Z,100231.16
2022-08-17T15:47:58.597Z,100228.7
2022-08-17T15:49:00.448Z,100223.16
2022-08-17T15:50:00.279Z,100220.94
2022-08-17T15:51:01.038Z,100222.91
2022-08-17T15:52:00.051Z,100225.3
2022-08-17T15:53:01.600Z,100220.7
2022-08-17T15:54:19.354Z,100221.44
2022-08-17T15:55:06.726Z,100221.99
2022-08-17T15:56:07.004Z,100220.96
2022-08-17T15:57:06.022Z,100221.88
2022-08-17T15:58:06.230Z,100220.9
2022-08-17T15:59:06.347Z,100221.75
2022-08-17T16:00:09.328Z,100220.09
2022-08-17T16:01:14.131Z,100215
2022-08-17T16:03:45.126Z,100217.49
2022-08-17T16:04:30.293Z,100215.56
2022-08-17T16:05:18.819Z,100217.16
2022-08-17T16:06:17.963Z,100220.53
2022-08-17T16:07:17.659Z,100217.88
2022-08-17T16:08:21.147Z,100215.84
2022-08-17T16:09:18.989Z,100219.45
2022-08-17T16:10:19.700Z,100219.12
2022-08-17T16:11:20.251Z,100218.78
2022-08-17T16:12:21.275Z,100220.3
2022-08-17T16:13:20.158Z,100220.22
2022-08-17T16:14:20.890Z,100224.14
2022-08-17T16:15:20.890Z,100221.77
2022-08-17T16:16:21.198Z,100221.59
2022-08-17T16:17:38.898Z,100223.09
2022-08-17T16:18:24.190Z,100220.08
2022-08-17T16:19:23.376Z,100220.67
2022-08-17T16:20:23.654Z,100218.05
2022-08-17T16:21:24.004Z,100220.38
2022-08-17T16:23:26.066Z,100219.99
2022-08-17T16:24:26.478Z,100219.84
2022-08-17T16:25:52.551Z,100216.31
2022-08-17T16:26:29.459Z,100214.98
2022-08-17T16:27:27.620Z,100215.39
2022-08-17T16:28:36.354Z,100214.06
2022-08-17T16:29:28.965Z,100213.75
2022-08-17T16:30:29.963Z,100213.45
2022-08-17T16:31:30.412Z,100212.6
2022-08-17T16:32:31.909Z,100213.72
2022-08-17T16:33:30.637Z,100214.86
2022-08-17T16:34:30.640Z,100213.62
2022-08-17T16:35:31.059Z,100216.84
2022-08-17T16:36:31.469Z,100216.55
2022-08-17T16:37:33.051Z,100212.41
2022-08-17T16:38:32.409Z,100215.38
2022-08-17T16:39:32.683Z,100214.67
2022-08-17T16:40:35.621Z,100218.33
2022-08-17T16:41:33.867Z,100218.48
2022-08-17T16:42:35.603Z,100218.88
2022-08-17T16:43:34.789Z,100220.76
2022-08-17T16:44:34.602Z,100219.17
2022-08-17T16:45:35.327Z,100221.87
2022-08-17T16:46:35.528Z,100222.52
2022-08-17T16:47:36.461Z,100220.45
2022-08-17T16:48:36.053Z,100219
2022-08-17T16:49:38.091Z,100222.64
2022-08-17T16:50:36.891Z,100220.26
2022-08-17T16:51:37.617Z,100225.17
2022-08-17T16:52:38.241Z,100219.61
2022-08-17T16:53:37.642Z,100223.98
2022-08-17T16:54:39.886Z,100221.59
2022-08-17T16:55:38.688Z,100226.04
2022-08-17T16:56:38.666Z,100225.09
2022-08-17T16:57:48.538Z,100228.81
2022-08-17T16:58:42.987Z,100221.98
2022-08-17T16:59:47.965Z,100224.59
2022-08-17T17:00:46.283Z,100227.55
2022-08-17T17:01:45.966Z,100226.53
2022-08-17T17:02:47.858Z,100228.72
2022-08-17T17:03:56.353Z,100230.92
2022-08-17T17:07:08.323Z,100228.38
2022-08-17T17:08:11.510Z,100225.79
2022-08-17T17:09:17.151Z,100232.34
2022-08-17T17:10:22.906Z,100228.17
2022-08-17T17:11:15.627Z,100232.23
2022-08-17T17:12:19.725Z,100229.39
2022-08-17T17:14:26.403Z,100232.64
2022-08-17T17:15:32.554Z,100230.39
2022-08-17T17:20:44.461Z,100235.9
2022-08-17T17:33:14.774Z,100238.89
2022-08-17T17:34:16.225Z,100239.19
2022-08-17T17:43:39.002Z,100241.83
2022-08-17T17:44:40.628Z,100241.8
2022-08-17T17:45:44.532Z,100240.46
2022-08-17T17:46:50.886Z,100237.7
2022-08-17T17:47:44.466Z,100236.34
2022-08-17T17:48:43.833Z,100236.36
2022-08-17T17:49:46.701Z,100238.97
2022-08-17T18:15:50.551Z,100234.28
2022-08-17T18:16:57.008Z,100233.61
2022-08-17T18:18:51.392Z,100228.14
2022-08-17T18:19:50.175Z,100230.97
2022-08-17T18:20:53.923Z,100227.95
2022-08-17T18:22:55.207Z,100230.9
2022-08-17T18:24:01.676Z,100231.03
2022-08-17T18:24:59.012Z,100234.7
2022-08-17T18:26:00.346Z,100237.23
2022-08-17T18:27:01.581Z,100237.06
2022-08-17T18:28:00.261Z,100239.05
2022-08-17T18:29:02.320Z,100238.31
2022-08-17T18:38:28.685Z,100245.31